AFL246 UNKL-UNNT
Flight info
| Callsign | AFL246 |
|---|---|
| Flight time | N/A |
| Altitude | 36000 |
| Route | APRUS2F APRUS B926 NATIR NATIR1K |
| Aircraft | A320/M-SDE3FGHIRWY/LB1 |
Departure
| Time | 2026-05-01 09:32 |
|---|---|
| Airport | Krasnoyarsk International Airport (UNKL) |
Arrival
| Time | N/A |
|---|---|
| Airport | Novosibirsk Tolmachevo Airport (UNNT) |
| Time | Latitude | Longitude | Altitude | Speed | Heading |
|---|---|---|---|---|---|
| 2026-05-01 09:07 | 56.17928 | 92.48618 | 957 ft | 0 kts | 24° |
| 2026-05-01 09:23 | 56.17919 | 92.48611 | 958 ft | 5 kts | 23° |
| 2026-05-01 09:24 | 56.17867 | 92.48578 | 956 ft | 2 kts | 358° |
| 2026-05-01 09:24 | 56.17856 | 92.48580 | 955 ft | 2 kts | 321° |
| 2026-05-01 09:24 | 56.17843 | 92.48613 | 956 ft | 2 kts | 292° |
| 2026-05-01 09:25 | 56.17838 | 92.48635 | 956 ft | 0 kts | 290° |
| 2026-05-01 09:26 | 56.17847 | 92.48590 | 953 ft | 7 kts | 290° |
| 2026-05-01 09:26 | 56.17859 | 92.48492 | 953 ft | 6 kts | 232° |
| 2026-05-01 09:27 | 56.17721 | 92.48495 | 956 ft | 17 kts | 116° |
| 2026-05-01 09:27 | 56.17663 | 92.48713 | 957 ft | 22 kts | 114° |
| 2026-05-01 09:27 | 56.17598 | 92.48975 | 955 ft | 24 kts | 114° |
| 2026-05-01 09:28 | 56.17557 | 92.49168 | 953 ft | 26 kts | 109° |
| 2026-05-01 09:28 | 56.17483 | 92.49505 | 953 ft | 14 kts | 113° |
| 2026-05-01 09:28 | 56.17469 | 92.49561 | 955 ft | 15 kts | 113° |
| 2026-05-01 09:29 | 56.17295 | 92.50282 | 954 ft | 23 kts | 113° |
| 2026-05-01 09:29 | 56.17207 | 92.50661 | 955 ft | 26 kts | 112° |
| 2026-05-01 09:30 | 56.17048 | 92.51324 | 955 ft | 31 kts | 113° |
| 2026-05-01 09:30 | 56.16962 | 92.51684 | 954 ft | 33 kts | 113° |
| 2026-05-01 09:30 | 56.16714 | 92.52027 | 953 ft | 20 kts | 173° |
| 2026-05-01 09:31 | 56.16677 | 92.51872 | 956 ft | 17 kts | 310° |
| 2026-05-01 09:31 | 56.16736 | 92.51640 | 955 ft | 36 kts | 291° |
| 2026-05-01 09:31 | 56.17227 | 92.49589 | 952 ft | 169 kts | 294° |
| 2026-05-01 09:32 | 56.17920 | 92.46737 | 1930 ft | 187 kts | 294° |
| 2026-05-01 09:32 | 56.18978 | 92.42270 | 3847 ft | 210 kts | 292° |
| 2026-05-01 09:32 | 56.19575 | 92.39736 | 4222 ft | 233 kts | 292° |
| 2026-05-01 09:33 | 56.20241 | 92.36916 | 4711 ft | 256 kts | 292° |
| 2026-05-01 09:33 | 56.20945 | 92.33928 | 5512 ft | 265 kts | 292° |
| 2026-05-01 09:33 | 56.21652 | 92.27541 | 5985 ft | 266 kts | 258° |
| 2026-05-01 09:34 | 56.21099 | 92.24416 | 6074 ft | 268 kts | 248° |
| 2026-05-01 09:34 | 56.20319 | 92.21321 | 6864 ft | 272 kts | 245° |
| 2026-05-01 09:34 | 56.18714 | 92.15124 | 8804 ft | 276 kts | 248° |
| 2026-05-01 09:35 | 56.18195 | 92.12982 | 9443 ft | 278 kts | 249° |
| 2026-05-01 09:35 | 56.16422 | 92.05191 | 10796 ft | 312 kts | 250° |
| 2026-05-01 09:35 | 56.15616 | 92.01512 | 11467 ft | 320 kts | 251° |
| 2026-05-01 09:36 | 56.14801 | 91.97760 | 12271 ft | 325 kts | 251° |
| 2026-05-01 09:36 | 56.13983 | 91.93973 | 13090 ft | 327 kts | 252° |
| 2026-05-01 09:36 | 56.13157 | 91.90148 | 13896 ft | 330 kts | 252° |
| 2026-05-01 09:36 | 56.12323 | 91.86291 | 14623 ft | 333 kts | 252° |
| 2026-05-01 09:37 | 56.11478 | 91.82398 | 15309 ft | 336 kts | 252° |
| 2026-05-01 09:37 | 56.09759 | 91.74529 | 16687 ft | 343 kts | 252° |
| 2026-05-01 09:37 | 56.08884 | 91.70537 | 17366 ft | 346 kts | 252° |
| 2026-05-01 09:38 | 56.07108 | 91.62455 | 18689 ft | 352 kts | 253° |
| 2026-05-01 09:38 | 56.06513 | 91.59750 | 19055 ft | 354 kts | 253° |
| 2026-05-01 09:38 | 56.05605 | 91.55627 | 19614 ft | 357 kts | 253° |
| 2026-05-01 09:39 | 56.03436 | 91.45866 | 20907 ft | 365 kts | 253° |
| 2026-05-01 09:39 | 56.02811 | 91.43064 | 21269 ft | 367 kts | 253° |
| 2026-05-01 09:39 | 56.01539 | 91.37358 | 21977 ft | 372 kts | 253° |
| 2026-05-01 09:40 | 56.00576 | 91.33056 | 22501 ft | 375 kts | 253° |
| 2026-05-01 09:40 | 55.98634 | 91.24328 | 23546 ft | 380 kts | 256° |
| 2026-05-01 09:40 | 55.97969 | 91.19780 | 23973 ft | 379 kts | 263° |
| 2026-05-01 09:41 | 55.97433 | 91.15156 | 24418 ft | 381 kts | 263° |
| 2026-05-01 09:41 | 55.96356 | 91.05915 | 25292 ft | 385 kts | 263° |
| 2026-05-01 09:41 | 55.95804 | 91.01228 | 25722 ft | 387 kts | 263° |
| 2026-05-01 09:42 | 55.95245 | 90.96521 | 26147 ft | 389 kts | 263° |
| 2026-05-01 09:42 | 55.94682 | 90.91784 | 26569 ft | 391 kts | 263° |
| 2026-05-01 09:42 | 55.93539 | 90.82253 | 27398 ft | 395 kts | 263° |
| 2026-05-01 09:43 | 55.92379 | 90.72615 | 28203 ft | 400 kts | 263° |
| 2026-05-01 09:43 | 55.91793 | 90.67756 | 28591 ft | 402 kts | 263° |
| 2026-05-01 09:43 | 55.91203 | 90.62873 | 28988 ft | 404 kts | 263° |
| 2026-05-01 09:44 | 55.90801 | 90.59564 | 29247 ft | 405 kts | 263° |
| 2026-05-01 09:44 | 55.89497 | 90.48892 | 30060 ft | 410 kts | 262° |
| 2026-05-01 09:44 | 55.89091 | 90.45598 | 30268 ft | 412 kts | 262° |
| 2026-05-01 09:45 | 55.88262 | 90.38917 | 30669 ft | 414 kts | 262° |
| 2026-05-01 09:45 | 55.87007 | 90.28876 | 31265 ft | 417 kts | 262° |
| 2026-05-01 09:45 | 55.86376 | 90.23825 | 31540 ft | 419 kts | 262° |
| 2026-05-01 09:46 | 55.85745 | 90.18771 | 31914 ft | 418 kts | 262° |
| 2026-05-01 09:46 | 55.85115 | 90.13734 | 32346 ft | 416 kts | 262° |
| 2026-05-01 09:46 | 55.84483 | 90.08718 | 32767 ft | 414 kts | 262° |
| 2026-05-01 09:46 | 55.83851 | 90.03730 | 33183 ft | 413 kts | 261° |
| 2026-05-01 09:47 | 55.81873 | 89.88269 | 34421 ft | 408 kts | 261° |
| 2026-05-01 09:47 | 55.81692 | 89.86858 | 34526 ft | 408 kts | 261° |